Time;durP1;ratioP1;P1;durP2;ratioP2;P2;SDS_P1;SDS_P2;PMS_P1;PMS_P2;Temp;Humidity;BMP_temperature;BMP_pressure;BME280_temperature;BME280_humidity;BME280_pressure;Samples;Min_cycle;Max_cycle;Signal;HPM_P1;HPM_P2
2023/08/31 00:00:55;;;;;;;5.80;3.53;;;;;;;;;;5110034;28;20174;-72
2023/08/31 00:03:59;;;;;;;8.37;4.20;;;;;;;;;;5109985;28;20210;-73
2023/08/31 00:07:04;;;;;;;5.77;3.77;;;;;;;;;;5110202;28;20183;-73
2023/08/31 00:10:11;;;;;;;4.03;3.63;;;;;;;;;;5109705;28;20217;-72
2023/08/31 00:13:16;;;;;;;3.70;3.40;;;;;;;;;;5109737;28;20566;-72
2023/08/31 00:16:25;;;;;;;5.07;3.63;;;;;;;;;;5109797;28;20194;-72
2023/08/31 00:19:29;;;;;;;4.47;4.03;;;;;;;;;;5108924;28;20194;-73
2023/08/31 00:22:33;;;;;;;7.73;3.77;;;;;;;;;;5098581;28;20214;-72
2023/08/31 00:25:38;;;;;;;4.73;3.50;;;;;;;;;;5096095;28;20637;-74
2023/08/31 00:28:44;;;;;;;4.93;4.00;;;;;;;;;;5095940;28;20179;-74
2023/08/31 00:31:51;;;;;;;6.73;4.57;;;;;;;;;;5094974;28;20215;-72
2023/08/31 00:34:55;;;;;;;5.00;4.50;;;;;;;;;;5095051;28;20661;-73
2023/08/31 00:38:00;;;;;;;4.50;4.03;;;;;;;;;;5094992;28;20175;-72
2023/08/31 00:41:04;;;;;;;4.27;3.87;;;;;;;;;;5095774;28;20175;-74
2023/08/31 00:44:08;;;;;;;4.40;4.00;;;;;;;;;;5094920;28;20183;-72
2023/08/31 00:47:16;;;;;;;4.90;4.07;;;;;;;;;;5094875;28;20178;-72
2023/08/31 00:50:20;;;;;;;5.60;4.63;;;;;;;;;;5094741;28;20195;-72
2023/08/31 00:53:25;;;;;;;7.40;4.37;;;;;;;;;;5094567;28;20215;-72
2023/08/31 00:56:29;;;;;;;5.03;4.40;;;;;;;;;;5094617;28;20170;-74
2023/08/31 00:59:33;;;;;;;5.27;4.77;;;;;;;;;;5095342;28;20197;-72
2023/08/31 01:02:46;;;;;;;6.53;5.10;;;;;;;;;;5095209;28;20211;-72
2023/08/31 01:06:00;;;;;;;6.60;4.67;;;;;;;;;;5094470;28;20534;-72
2023/08/31 01:09:18;;;;;;;6.87;4.60;;;;;;;;;;5094479;28;20183;-74
2023/08/31 01:12:32;;;;;;;6.40;4.13;;;;;;;;;;5094240;28;20202;-73
2023/08/31 01:15:40;;;;;;;4.83;4.33;;;;;;;;;;5082654;28;20175;-73
2023/08/31 01:18:46;;;;;;;4.53;4.13;;;;;;;;;;5095044;28;20179;-73
2023/08/31 01:21:54;;;;;;;6.37;4.47;;;;;;;;;;5094951;28;20626;-72
2023/08/31 01:25:03;;;;;;;5.67;4.93;;;;;;;;;;5094219;28;20175;-73
2023/08/31 01:28:09;;;;;;;5.50;4.63;;;;;;;;;;5094195;28;20179;-73
2023/08/31 01:31:15;;;;;;;6.40;4.83;;;;;;;;;;5094770;28;20557;-73
2023/08/31 01:34:19;;;;;;;5.70;5.10;;;;;;;;;;5093743;28;20183;-73
2023/08/31 01:37:37;;;;;;;7.30;5.50;;;;;;;;;;5094629;28;20212;-73
2023/08/31 01:40:56;;;;;;;5.73;5.13;;;;;;;;;;5094595;28;20179;-73
2023/08/31 01:44:00;;;;;;;6.10;5.50;;;;;;;;;;5093681;28;20210;-73
2023/08/31 01:47:06;;;;;;;6.93;5.30;;;;;;;;;;5093604;28;20673;-73
2023/08/31 01:50:11;;;;;;;8.77;5.77;;;;;;;;;;5093751;28;20179;-72
2023/08/31 01:53:15;;;;;;;11.33;6.13;;;;;;;;;;5093434;28;20210;-73
2023/08/31 01:56:21;;;;;;;8.17;6.27;;;;;;;;;;5093530;28;20194;-73
2023/08/31 01:59:27;;;;;;;6.67;5.97;;;;;;;;;;5081781;28;20175;-72
2023/08/31 02:02:31;;;;;;;7.80;4.90;;;;;;;;;;5081646;28;20214;-72
2023/08/31 02:05:35;;;;;;;7.93;4.00;;;;;;;;;;5093313;28;20527;-72
2023/08/31 02:08:39;;;;;;;4.73;3.30;;;;;;;;;;5093212;28;20194;-72
2023/08/31 02:11:43;;;;;;;3.00;2.70;;;;;;;;;;5099035;28;20202;-72
2023/08/31 02:14:47;;;;;;;2.90;2.50;;;;;;;;;;5093170;28;20178;-72
2023/08/31 02:17:51;;;;;;;3.10;2.10;;;;;;;;;;5094026;28;20178;-72
2023/08/31 02:20:55;;;;;;;3.33;2.53;;;;;;;;;;5093499;28;20506;-72
2023/08/31 02:23:59;;;;;;;4.63;2.70;;;;;;;;;;5092943;28;20217;-71
2023/08/31 02:27:03;;;;;;;4.50;2.50;;;;;;;;;;5092945;28;20175;-72
2023/08/31 02:30:08;;;;;;;3.17;2.67;;;;;;;;;;5093763;28;20634;-72
2023/08/31 02:33:12;;;;;;;6.20;3.40;;;;;;;;;;5093678;28;20700;-72
2023/08/31 02:36:17;;;;;;;3.67;3.37;;;;;;;;;;5093687;28;20183;-71
2023/08/31 02:39:21;;;;;;;4.23;3.70;;;;;;;;;;5092805;28;20634;-71
2023/08/31 02:42:25;;;;;;;4.87;3.50;;;;;;;;;;5092635;28;20689;-72
2023/08/31 02:45:29;;;;;;;7.07;3.17;;;;;;;;;;5093218;28;20195;-71
2023/08/31 02:48:33;;;;;;;3.93;3.53;;;;;;;;;;5092617;28;20530;-72
2023/08/31 02:51:37;;;;;;;4.37;3.40;;;;;;;;;;5093586;28;20210;-72
2023/08/31 02:54:42;;;;;;;4.83;3.40;;;;;;;;;;5093380;28;20183;-72
2023/08/31 02:57:46;;;;;;;3.60;3.30;;;;;;;;;;5092584;28;20633;-72
2023/08/31 03:00:50;;;;;;;3.93;3.43;;;;;;;;;;5092411;28;20190;-72
2023/08/31 03:03:55;;;;;;;3.60;3.20;;;;;;;;;;5092417;28;20206;-71
2023/08/31 03:07:00;;;;;;;6.77;3.23;;;;;;;;;;5092411;28;20178;-72
2023/08/31 03:10:04;;;;;;;4.00;3.07;;;;;;;;;;5093103;28;20206;-71
2023/08/31 03:13:08;;;;;;;5.17;3.80;;;;;;;;;;5092381;28;20206;-72
2023/08/31 03:16:12;;;;;;;3.67;3.33;;;;;;;;;;5093032;28;20198;-72
2023/08/31 03:19:16;;;;;;;4.50;4.10;;;;;;;;;;5092343;28;20179;-72
2023/08/31 03:22:20;;;;;;;5.53;3.90;;;;;;;;;;5080713;28;20207;-72
2023/08/31 03:25:27;;;;;;;4.87;4.30;;;;;;;;;;5093130;28;20174;-72
2023/08/31 03:28:31;;;;;;;5.37;4.57;;;;;;;;;;5092468;28;20183;-72
2023/08/31 03:31:35;;;;;;;5.83;5.17;;;;;;;;;;5093220;28;20195;-72
2023/08/31 03:34:39;;;;;;;5.67;4.80;;;;;;;;;;5092360;28;20194;-72
2023/08/31 03:37:47;;;;;;;7.23;4.90;;;;;;;;;;5093179;28;20175;-72
2023/08/31 03:40:55;;;;;;;5.93;4.93;;;;;;;;;;5092282;28;20194;-72
2023/08/31 03:43:59;;;;;;;5.70;5.13;;;;;;;;;;5092285;28;20214;-73
2023/08/31 03:47:04;;;;;;;7.20;4.67;;;;;;;;;;5093171;28;20174;-72
2023/08/31 03:50:08;;;;;;;7.30;4.97;;;;;;;;;;5092310;28;20179;-72
2023/08/31 03:53:12;;;;;;;5.13;4.63;;;;;;;;;;5092304;28;20206;-72
2023/08/31 03:56:16;;;;;;;5.27;3.80;;;;;;;;;;5092518;28;20175;-72
2023/08/31 03:59:21;;;;;;;5.30;3.40;;;;;;;;;;5096009;28;20191;-72
2023/08/31 04:02:25;;;;;;;3.47;3.13;;;;;;;;;;5095876;28;20684;-72
2023/08/31 04:05:33;;;;;;;3.57;3.27;;;;;;;;;;5095972;28;20174;-72
2023/08/31 04:08:37;;;;;;;3.90;3.50;;;;;;;;;;5095966;28;20182;-72
2023/08/31 04:11:41;;;;;;;3.60;3.30;;;;;;;;;;5096293;28;20202;-72
2023/08/31 04:14:46;;;;;;;3.50;2.93;;;;;;;;;;5075572;28;20179;-72
2023/08/31 04:17:50;;;;;;;3.23;2.63;;;;;;;;;;5075431;28;20180;-72
2023/08/31 04:20:55;;;;;;;6.00;3.17;;;;;;;;;;5075400;28;20537;-72
2023/08/31 04:24:00;;;;;;;4.27;3.10;;;;;;;;;;5076058;28;20581;-72
2023/08/31 04:27:04;;;;;;;2.97;2.67;;;;;;;;;;5076078;28;20513;-72
2023/08/31 04:30:08;;;;;;;3.03;2.73;;;;;;;;;;5076002;28;20183;-72
2023/08/31 04:33:13;;;;;;;3.57;2.70;;;;;;;;;;5075672;28;20215;-72
2023/08/31 04:36:17;;;;;;;4.60;2.70;;;;;;;;;;5075849;28;20187;-72
2023/08/31 04:39:21;;;;;;;4.37;2.60;;;;;;;;;;5075875;28;20176;-72
2023/08/31 04:42:26;;;;;;;5.30;2.93;;;;;;;;;;5075543;28;20215;-72
2023/08/31 04:45:30;;;;;;;5.90;2.90;;;;;;;;;;5075658;28;20681;-72
2023/08/31 04:48:34;;;;;;;4.80;3.20;;;;;;;;;;5075713;28;20199;-72
2023/08/31 04:51:39;;;;;;;3.80;3.40;;;;;;;;;;5075358;28;20219;-72
2023/08/31 04:54:43;;;;;;;3.37;2.87;;;;;;;;;;5075632;28;20187;-72
2023/08/31 04:57:47;;;;;;;3.83;3.40;;;;;;;;;;5075490;28;20179;-72
2023/08/31 05:00:51;;;;;;;3.03;2.73;;;;;;;;;;5075502;28;20179;-72
2023/08/31 05:03:56;;;;;;;3.93;3.10;;;;;;;;;;5075301;28;20207;-72
2023/08/31 05:07:00;;;;;;;4.37;3.17;;;;;;;;;;5075412;28;20180;-70
2023/08/31 05:10:04;;;;;;;6.17;3.20;;;;;;;;;;5075135;28;20210;-72
2023/08/31 05:13:08;;;;;;;6.23;3.20;;;;;;;;;;5074718;28;20223;-72
2023/08/31 05:16:12;;;;;;;4.97;3.13;;;;;;;;;;5075157;28;20183;-72
2023/08/31 05:19:16;;;;;;;5.60;3.50;;;;;;;;;;5075130;28;20180;-72
2023/08/31 05:22:22;;;;;;;5.83;3.40;;;;;;;;;;5074960;28;20203;-72
2023/08/31 05:25:26;;;;;;;3.40;3.10;;;;;;;;;;5074977;28;20179;-71
2023/08/31 05:28:30;;;;;;;4.00;3.20;;;;;;;;;;5074050;28;20531;-72
2023/08/31 05:31:34;;;;;;;4.03;3.43;;;;;;;;;;5074646;28;20215;-72
2023/08/31 05:34:39;;;;;;;5.97;4.53;;;;;;;;;;5074762;28;20179;-72
2023/08/31 05:37:43;;;;;;;4.47;4.00;;;;;;;;;;5074736;28;20642;-72
2023/08/31 05:40:47;;;;;;;9.73;7.53;;;;;;;;;;5074620;28;20643;-72
2023/08/31 05:43:52;;;;;;;8.17;6.90;;;;;;;;;;5074455;28;20682;-72
2023/08/31 05:46:56;;;;;;;10.43;4.97;;;;;;;;;;5074473;28;20176;-71
2023/08/31 05:50:00;;;;;;;5.27;4.43;;;;;;;;;;5074488;28;20508;-72
2023/08/31 05:53:05;;;;;;;15.97;11.40;;;;;;;;;;5074132;28;20566;-72
2023/08/31 05:56:09;;;;;;;8.97;6.63;;;;;;;;;;5074386;28;20192;-72
2023/08/31 05:59:13;;;;;;;6.37;4.27;;;;;;;;;;5074182;28;20183;-72
2023/08/31 06:02:18;;;;;;;7.63;4.47;;;;;;;;;;5073927;28;20207;-72
2023/08/31 06:05:22;;;;;;;4.87;4.17;;;;;;;;;;5073925;28;20187;-72
2023/08/31 06:08:26;;;;;;;5.10;3.77;;;;;;;;;;5074166;28;20175;-72
2023/08/31 06:11:30;;;;;;;4.60;3.83;;;;;;;;;;5073964;28;20207;-72
2023/08/31 06:14:34;;;;;;;7.57;4.20;;;;;;;;;;5073879;28;20696;-72
2023/08/31 06:17:38;;;;;;;5.17;3.70;;;;;;;;;;5073993;28;20195;-71
2023/08/31 06:20:42;;;;;;;4.33;3.93;;;;;;;;;;5073211;28;20634;-72
2023/08/31 06:23:46;;;;;;;4.83;3.83;;;;;;;;;;5073600;28;20211;-72
2023/08/31 06:26:51;;;;;;;4.17;3.70;;;;;;;;;;5073645;28;20176;-72
2023/08/31 06:29:56;;;;;;;4.90;3.80;;;;;;;;;;5073692;28;20180;-72
2023/08/31 06:33:00;;;;;;;5.47;4.60;;;;;;;;;;5073236;28;20230;-72
2023/08/31 06:36:05;;;;;;;6.30;5.23;;;;;;;;;;5073490;28;20184;-72
2023/08/31 06:39:08;;;;;;;5.47;4.20;;;;;;;;;;5072667;28;20639;-72
2023/08/31 06:42:12;;;;;;;4.50;3.83;;;;;;;;;;5073509;28;20215;-72
2023/08/31 06:45:17;;;;;;;5.10;3.37;;;;;;;;;;5073485;28;20175;-72
2023/08/31 06:48:20;;;;;;;3.87;3.13;;;;;;;;;;5073441;28;20179;-72
2023/08/31 06:51:25;;;;;;;5.80;3.00;;;;;;;;;;5073385;28;20175;-72
2023/08/31 06:54:29;;;;;;;5.53;3.70;;;;;;;;;;5073296;28;20191;-72
2023/08/31 06:57:33;;;;;;;8.33;4.47;;;;;;;;;;5073299;28;20535;-72
2023/08/31 07:00:37;;;;;;;10.63;6.07;;;;;;;;;;5073224;28;20175;-72
2023/08/31 07:03:41;;;;;;;7.33;4.43;;;;;;;;;;5073068;28;20236;-72
2023/08/31 07:06:45;;;;;;;7.40;3.40;;;;;;;;;;5072967;28;20180;-72
2023/08/31 07:09:49;;;;;;;4.40;2.90;;;;;;;;;;5073027;28;20535;-72
2023/08/31 07:12:54;;;;;;;3.33;2.83;;;;;;;;;;5072987;28;20218;-73
2023/08/31 07:15:58;;;;;;;5.03;3.10;;;;;;;;;;5073294;28;20187;-73
2023/08/31 07:19:02;;;;;;;3.50;2.77;;;;;;;;;;5073162;28;20179;-73
2023/08/31 07:22:06;;;;;;;4.23;2.80;;;;;;;;;;5073042;28;20207;-72
2023/08/31 07:25:11;;;;;;;3.13;2.57;;;;;;;;;;5073068;28;20175;-73
2023/08/31 07:28:15;;;;;;;5.13;3.43;;;;;;;;;;5072995;28;20638;-72
2023/08/31 07:31:20;;;;;;;3.87;2.90;;;;;;;;;;5073463;28;20184;-72
2023/08/31 07:34:24;;;;;;;5.13;3.03;;;;;;;;;;5077125;28;20512;-73
2023/08/31 07:37:28;;;;;;;5.07;2.87;;;;;;;;;;5076873;28;20511;-73
2023/08/31 07:40:32;;;;;;;4.77;2.87;;;;;;;;;;5076881;28;20195;-73
2023/08/31 07:43:36;;;;;;;8.80;4.80;;;;;;;;;;5076684;28;20215;-72
2023/08/31 07:46:41;;;;;;;17.43;12.97;;;;;;;;;;5076792;28;20516;-72
2023/08/31 07:49:45;;;;;;;7.93;4.60;;;;;;;;;;5076274;28;20534;-72
2023/08/31 07:52:49;;;;;;;5.77;3.50;;;;;;;;;;5076827;28;20558;-73
2023/08/31 07:55:54;;;;;;;5.00;3.27;;;;;;;;;;5076675;28;20635;-73
2023/08/31 07:58:58;;;;;;;3.93;3.10;;;;;;;;;;5076619;28;20627;-72
2023/08/31 08:02:02;;;;;;;5.73;2.83;;;;;;;;;;5076675;28;20219;-72
2023/08/31 08:05:07;;;;;;;3.33;2.60;;;;;;;;;;5076752;28;20183;-72
2023/08/31 08:08:11;;;;;;;5.80;2.10;;;;;;;;;;5076436;28;20519;-73
2023/08/31 08:11:15;;;;;;;5.03;2.63;;;;;;;;;;5052603;28;20211;-72
2023/08/31 08:14:19;;;;;;;4.60;2.20;;;;;;;;;;5076242;28;20167;-71
2023/08/31 08:17:24;;;;;;;6.90;2.50;;;;;;;;;;5075764;28;20191;-72
2023/08/31 08:20:28;;;;;;;3.67;2.00;;;;;;;;;;5076171;28;20179;-76
2023/08/31 08:23:33;;;;;;;7.40;5.23;;;;;;;;;;5076037;28;20215;-72
2023/08/31 08:26:37;;;;;;;11.70;5.77;;;;;;;;;;5076200;28;20180;-72
2023/08/31 08:29:41;;;;;;;5.07;2.77;;;;;;;;;;5076085;28;20635;-72
2023/08/31 08:32:45;;;;;;;3.77;2.50;;;;;;;;;;5076164;28;20214;-72
2023/08/31 08:35:49;;;;;;;4.77;2.70;;;;;;;;;;5076123;28;20179;-73
2023/08/31 08:38:53;;;;;;;5.73;2.40;;;;;;;;;;5075859;28;20527;-72
2023/08/31 08:41:58;;;;;;;4.50;2.00;;;;;;;;;;5075732;28;20696;-72
2023/08/31 08:45:04;;;;;;;4.73;2.10;;;;;;;;;;5075981;28;20183;-73
2023/08/31 08:48:08;;;;;;;6.80;2.97;;;;;;;;;;5075767;28;20631;-72
2023/08/31 08:51:13;;;;;;;3.47;1.80;;;;;;;;;;5075773;28;20191;-72
2023/08/31 08:54:18;;;;;;;8.83;3.10;;;;;;;;;;5074440;28;20211;-72
2023/08/31 08:57:22;;;;;;;5.00;2.00;;;;;;;;;;5075536;28;20180;-72
2023/08/31 09:00:30;;;;;;;4.40;2.37;;;;;;;;;;5074907;28;20195;-73
2023/08/31 09:03:35;;;;;;;9.40;2.40;;;;;;;;;;5076364;28;20227;-73
2023/08/31 09:06:40;;;;;;;5.03;2.50;;;;;;;;;;5075097;28;20176;-72
2023/08/31 09:09:53;;;;;;;5.10;1.90;;;;;;;;;;5080350;28;20210;-72
2023/08/31 09:12:59;;;;;;;7.37;2.53;;;;;;;;;;5095059;28;20554;-72
2023/08/31 09:16:03;;;;;;;4.03;2.20;;;;;;;;;;5078354;28;20658;-72
2023/08/31 09:19:19;;;;;;;4.73;1.97;;;;;;;;;;5079487;28;20199;-72
2023/08/31 09:22:23;;;;;;;6.13;2.20;;;;;;;;;;5074909;28;20219;-72
2023/08/31 09:25:27;;;;;;;4.57;2.30;;;;;;;;;;5074657;28;20661;-72
2023/08/31 09:28:31;;;;;;;4.60;1.97;;;;;;;;;;5073810;28;20195;-72
2023/08/31 09:31:36;;;;;;;3.57;1.83;;;;;;;;;;5074897;28;20176;-72
2023/08/31 09:34:40;;;;;;;8.13;2.63;;;;;;;;;;5074748;28;20207;-73
2023/08/31 09:37:56;;;;;;;22.60;11.53;;;;;;;;;;5074580;28;20179;-72
2023/08/31 09:41:05;;;;;;;5.43;2.10;;;;;;;;;;5074414;28;20657;-72
2023/08/31 09:44:17;;;;;;;3.47;2.00;;;;;;;;;;5074629;28;20659;-72
2023/08/31 09:47:21;;;;;;;7.97;1.60;;;;;;;;;;5074230;28;20214;-72
2023/08/31 09:50:30;;;;;;;4.27;1.80;;;;;;;;;;5074284;28;20516;-72
2023/08/31 09:53:36;;;;;;;3.27;1.67;;;;;;;;;;5074041;28;20223;-73
2023/08/31 09:56:45;;;;;;;13.07;2.30;;;;;;;;;;5074277;28;20181;-72
2023/08/31 09:59:50;;;;;;;5.70;1.60;;;;;;;;;;5073958;28;20191;-72
2023/08/31 10:02:56;;;;;;;6.03;2.63;;;;;;;;;;5073933;28;20525;-72
2023/08/31 10:06:02;;;;;;;3.80;2.10;;;;;;;;;;5074039;28;20182;-72
2023/08/31 10:09:06;;;;;;;3.50;1.70;;;;;;;;;;5074131;28;20184;-72
2023/08/31 10:12:11;;;;;;;5.97;1.63;;;;;;;;;;5073871;28;20217;-72
2023/08/31 10:15:16;;;;;;;4.33;1.80;;;;;;;;;;5073798;28;20175;-72
2023/08/31 10:18:21;;;;;;;3.67;1.60;;;;;;;;;;5073900;28;20188;-72
2023/08/31 10:21:25;;;;;;;3.53;1.40;;;;;;;;;;5073637;28;20531;-72
2023/08/31 10:24:58;;;;;;;4.53;1.40;;;;;;;;;;5073815;28;20176;-73
2023/08/31 10:28:16;;;;;;;8.47;1.80;;;;;;;;;;5073651;28;20223;-73
2023/08/31 10:31:24;;;;;;;5.77;1.47;;;;;;;;;;5072935;28;20191;-72
2023/08/31 10:34:38;;;;;;;2.90;1.53;;;;;;;;;;5073624;28;20207;-72
2023/08/31 10:37:42;;;;;;;6.07;1.40;;;;;;;;;;5073746;28;20516;-73
2023/08/31 10:41:00;;;;;;;16.27;10.93;;;;;;;;;;5073336;28;20180;-72
2023/08/31 10:44:30;;;;;;;22.50;13.37;;;;;;;;;;5073601;28;20191;-73
2023/08/31 10:47:40;;;;;;;7.57;3.63;;;;;;;;;;5073585;28;20190;-73
2023/08/31 10:50:49;;;;;;;8.80;4.27;;;;;;;;;;5073306;28;20543;-72
2023/08/31 10:54:13;;;;;;;9.87;6.63;;;;;;;;;;5073438;28;20223;-73
2023/08/31 10:57:18;;;;;;;9.83;6.73;;;;;;;;;;5073048;28;20523;-73
2023/08/31 11:01:07;;;;;;;7.77;5.17;;;;;;;;;;5073422;28;20511;-73
2023/08/31 11:04:11;;;;;;;21.47;7.20;;;;;;;;;;5073327;28;20179;-73
2023/08/31 11:07:19;;;;;;;14.97;4.77;;;;;;;;;;5072825;28;20183;-73
2023/08/31 11:10:26;;;;;;;15.97;4.93;;;;;;;;;;5072927;28;20203;-73
2023/08/31 11:13:31;;;;;;;26.30;11.53;;;;;;;;;;5072898;28;20215;-73
2023/08/31 11:16:38;;;;;;;20.20;11.00;;;;;;;;;;5072899;28;20565;-72
2023/08/31 11:19:42;;;;;;;10.20;7.40;;;;;;;;;;5073415;28;20191;-73
2023/08/31 11:22:54;;;;;;;11.00;6.00;;;;;;;;;;5073093;28;20693;-73
2023/08/31 11:25:58;;;;;;;6.30;4.43;;;;;;;;;;5072786;28;20195;-73
2023/08/31 11:29:06;;;;;;;23.60;4.80;;;;;;;;;;5072315;28;20175;-73
2023/08/31 11:32:11;;;;;;;11.87;4.57;;;;;;;;;;5072726;28;20219;-72
2023/08/31 11:35:16;;;;;;;7.33;3.57;;;;;;;;;;5072693;28;20203;-72
2023/08/31 11:38:20;;;;;;;5.73;2.97;;;;;;;;;;5072863;28;20179;-72
2023/08/31 11:41:24;;;;;;;8.93;6.47;;;;;;;;;;5072177;28;20179;-72
2023/08/31 11:44:28;;;;;;;9.20;3.53;;;;;;;;;;5072627;28;20171;-72
2023/08/31 11:47:33;;;;;;;8.43;3.40;;;;;;;;;;5073445;28;20171;-72
2023/08/31 11:50:39;;;;;;;9.67;5.30;;;;;;;;;;5072570;28;20195;-72
2023/08/31 11:53:44;;;;;;;10.90;5.30;;;;;;;;;;5072586;28;20562;-73
2023/08/31 11:56:48;;;;;;;5.30;3.67;;;;;;;;;;5072948;28;20191;-72
2023/08/31 11:59:52;;;;;;;12.40;3.17;;;;;;;;;;5072547;28;20176;-72
2023/08/31 12:02:58;;;;;;;7.63;2.30;;;;;;;;;;5072435;28;20215;-73
2023/08/31 12:06:03;;;;;;;15.60;2.40;;;;;;;;;;5072549;28;20176;-73
2023/08/31 12:09:09;;;;;;;15.03;2.63;;;;;;;;;;5072479;28;20179;-73
2023/08/31 12:12:20;;;;;;;6.83;1.73;;;;;;;;;;5072608;28;20583;-73
2023/08/31 12:15:31;;;;;;;5.03;1.80;;;;;;;;;;5072650;28;20203;-73
2023/08/31 12:18:37;;;;;;;2.80;1.50;;;;;;;;;;5074866;28;20650;-73
2023/08/31 12:21:43;;;;;;;30.27;2.87;;;;;;;;;;5075848;28;20179;-72
2023/08/31 12:24:47;;;;;;;7.90;1.97;;;;;;;;;;5076300;28;20176;-73
2023/08/31 12:27:51;;;;;;;3.27;1.77;;;;;;;;;;5076149;28;20519;-73
2023/08/31 12:30:59;;;;;;;3.43;1.50;;;;;;;;;;5076281;28;20203;-72
2023/08/31 12:34:06;;;;;;;5.93;1.80;;;;;;;;;;5075969;28;20685;-73
2023/08/31 12:37:10;;;;;;;3.03;1.33;;;;;;;;;;5075929;28;20185;-72
2023/08/31 12:40:15;;;;;;;35.23;2.80;;;;;;;;;;5076320;28;20175;-73
2023/08/31 12:43:19;;;;;;;8.90;1.77;;;;;;;;;;5075576;28;20689;-73
2023/08/31 12:46:24;;;;;;;4.83;1.57;;;;;;;;;;5075038;28;20631;-73
2023/08/31 12:49:28;;;;;;;14.30;2.37;;;;;;;;;;5074912;28;20184;-73
2023/08/31 12:52:32;;;;;;;7.30;1.93;;;;;;;;;;5075280;28;20694;-73
2023/08/31 12:55:36;;;;;;;5.30;1.70;;;;;;;;;;5075519;28;20210;-73
2023/08/31 12:58:40;;;;;;;1.93;1.23;;;;;;;;;;5075337;28;20533;-73
2023/08/31 13:01:44;;;;;;;3.77;1.57;;;;;;;;;;5075399;28;20178;-73
2023/08/31 13:04:49;;;;;;;6.73;1.50;;;;;;;;;;5075314;28;20520;-72
2023/08/31 13:07:54;;;;;;;2.70;1.80;;;;;;;;;;5075214;28;20637;-73
2023/08/31 13:10:58;;;;;;;2.40;1.30;;;;;;;;;;5075060;28;20209;-74
2023/08/31 13:14:02;;;;;;;4.23;1.40;;;;;;;;;;5075656;28;20217;-72
2023/08/31 13:17:06;;;;;;;2.60;1.40;;;;;;;;;;5074999;28;20533;-72
2023/08/31 13:20:11;;;;;;;3.00;1.67;;;;;;;;;;5075082;28;20186;-73
2023/08/31 13:23:15;;;;;;;6.28;1.77;;;;;;;;;;5075019;28;20217;-72
2023/08/31 13:26:19;;;;;;;3.17;1.50;;;;;;;;;;5074731;28;20183;-72
2023/08/31 13:29:23;;;;;;;15.27;2.10;;;;;;;;;;5074999;28;20185;-72
2023/08/31 13:32:28;;;;;;;6.87;1.90;;;;;;;;;;5081510;28;20675;-72
2023/08/31 13:35:32;;;;;;;4.37;1.60;;;;;;;;;;5094799;28;20208;-72
2023/08/31 13:38:36;;;;;;;2.47;1.57;;;;;;;;;;5095336;28;20186;-73
2023/08/31 13:41:40;;;;;;;4.50;1.58;;;;;;;;;;5094730;28;20171;-73
2023/08/31 13:44:45;;;;;;;8.05;1.98;;;;;;;;;;5095157;28;20171;-73
2023/08/31 13:47:49;;;;;;;7.80;1.92;;;;;;;;;;5094762;28;20174;-73
2023/08/31 13:50:53;;;;;;;4.13;1.70;;;;;;;;;;5094530;28;20200;-73
2023/08/31 13:53:57;;;;;;;12.43;1.77;;;;;;;;;;5094258;28;20226;-73
2023/08/31 13:57:02;;;;;;;24.05;2.80;;;;;;;;;;5094319;28;20633;-73
2023/08/31 14:00:09;;;;;;;6.47;1.80;;;;;;;;;;5094535;28;20189;-72
2023/08/31 14:03:13;;;;;;;25.95;2.60;;;;;;;;;;5094432;28;20214;-73
2023/08/31 14:06:17;;;;;;;2.50;1.40;;;;;;;;;;5094208;28;20190;-72
2023/08/31 14:09:21;;;;;;;11.05;2.25;;;;;;;;;;5093893;28;20196;-73
2023/08/31 14:12:26;;;;;;;3.92;1.48;;;;;;;;;;5094261;28;20221;-72
2023/08/31 14:15:30;;;;;;;3.00;1.40;;;;;;;;;;5094255;28;20213;-72
2023/08/31 14:18:35;;;;;;;13.40;2.10;;;;;;;;;;5094086;28;20199;-74
2023/08/31 14:21:39;;;;;;;12.15;2.35;;;;;;;;;;5093781;28;20201;-72
2023/08/31 14:24:43;;;;;;;7.85;1.70;;;;;;;;;;5093450;28;20554;-73
2023/08/31 14:27:48;;;;;;;5.70;1.58;;;;;;;;;;5093930;28;20177;-72
2023/08/31 14:30:52;;;;;;;5.70;1.87;;;;;;;;;;5094166;28;20178;-73
2023/08/31 14:33:56;;;;;;;4.50;2.10;;;;;;;;;;5093630;28;20616;-73
2023/08/31 14:37:00;;;;;;;10.33;2.30;;;;;;;;;;5093695;28;20184;-73
2023/08/31 14:40:06;;;;;;;9.17;2.03;;;;;;;;;;5093562;28;20180;-73
2023/08/31 14:43:11;;;;;;;5.90;2.00;;;;;;;;;;5092763;28;20215;-73
2023/08/31 14:46:14;;;;;;;6.70;2.00;;;;;;;;;;5093550;28;20172;-73
2023/08/31 14:49:22;;;;;;;6.87;1.70;;;;;;;;;;5093495;28;20180;-73
2023/08/31 14:52:26;;;;;;;34.37;4.00;;;;;;;;;;5093352;28;20213;-73
2023/08/31 14:55:30;;;;;;;6.47;1.70;;;;;;;;;;5093294;28;20210;-73
2023/08/31 14:58:34;;;;;;;2.97;1.60;;;;;;;;;;5093382;28;20186;-73
2023/08/31 15:01:38;;;;;;;23.93;2.77;;;;;;;;;;5093509;28;20175;-73
2023/08/31 15:04:43;;;;;;;5.13;1.60;;;;;;;;;;5093276;28;20173;-73
2023/08/31 15:07:47;;;;;;;6.50;1.67;;;;;;;;;;5093238;28;20633;-72
2023/08/31 15:10:53;;;;;;;3.50;1.47;;;;;;;;;;5093539;28;20204;-72
2023/08/31 15:13:58;;;;;;;13.80;2.50;;;;;;;;;;5093165;28;20207;-73
2023/08/31 15:17:03;;;;;;;29.23;2.93;;;;;;;;;;5093425;28;20169;-73
2023/08/31 15:20:08;;;;;;;17.10;2.00;;;;;;;;;;5093402;28;20208;-72
2023/08/31 15:23:12;;;;;;;3.77;1.70;;;;;;;;;;5093027;28;20698;-72
2023/08/31 15:26:18;;;;;;;2.93;1.60;;;;;;;;;;5093356;28;20195;-72
2023/08/31 15:29:23;;;;;;;3.53;1.60;;;;;;;;;;5093271;28;20523;-73
2023/08/31 15:32:27;;;;;;;4.77;1.70;;;;;;;;;;5092919;28;20221;-73
2023/08/31 15:35:32;;;;;;;10.40;1.90;;;;;;;;;;5092974;28;20203;-72
2023/08/31 15:38:38;;;;;;;2.93;1.63;;;;;;;;;;5093048;28;20184;-72
2023/08/31 15:41:43;;;;;;;14.43;2.37;;;;;;;;;;5092910;28;20179;-73
2023/08/31 15:44:47;;;;;;;4.63;1.70;;;;;;;;;;5093502;28;20175;-72
2023/08/31 15:47:52;;;;;;;21.47;2.40;;;;;;;;;;5093445;28;20194;-72
2023/08/31 15:50:57;;;;;;;4.20;1.50;;;;;;;;;;5093030;28;20182;-73
2023/08/31 15:54:04;;;;;;;109.03;7.83;;;;;;;;;;5096127;28;20678;-73
2023/08/31 15:57:08;;;;;;;21.47;2.63;;;;;;;;;;5096717;28;20707;-72
2023/08/31 16:00:12;;;;;;;6.23;1.90;;;;;;;;;;5096979;28;20187;-72
2023/08/31 16:03:16;;;;;;;10.90;1.90;;;;;;;;;;5096786;28;20207;-72
2023/08/31 16:06:20;;;;;;;4.80;2.00;;;;;;;;;;5096742;28;20171;-73
2023/08/31 16:09:24;;;;;;;3.90;2.00;;;;;;;;;;5096460;28;20645;-73
2023/08/31 16:12:28;;;;;;;2.43;1.70;;;;;;;;;;5096267;28;20214;-72
2023/08/31 16:15:33;;;;;;;7.20;1.70;;;;;;;;;;5096715;28;20198;-73
2023/08/31 16:18:37;;;;;;;3.00;1.30;;;;;;;;;;5096362;28;20187;-73
2023/08/31 16:21:41;;;;;;;5.00;1.80;;;;;;;;;;5096200;28;20183;-72
2023/08/31 16:24:46;;;;;;;9.60;1.77;;;;;;;;;;5096204;28;20179;-73
2023/08/31 16:27:50;;;;;;;4.40;1.50;;;;;;;;;;5096235;28;20179;-73
2023/08/31 16:30:56;;;;;;;10.07;2.27;;;;;;;;;;5096113;28;20175;-73
2023/08/31 16:34:00;;;;;;;9.90;2.27;;;;;;;;;;5095930;28;20214;-73
2023/08/31 16:37:04;;;;;;;12.13;2.23;;;;;;;;;;5096024;28;20167;-73
2023/08/31 16:40:11;;;;;;;11.60;2.03;;;;;;;;;;5096423;28;20187;-73
2023/08/31 16:43:15;;;;;;;11.93;2.33;;;;;;;;;;5095716;28;20686;-72
2023/08/31 16:46:19;;;;;;;6.23;1.77;;;;;;;;;;5096015;28;20179;-73
2023/08/31 16:49:24;;;;;;;3.07;1.80;;;;;;;;;;5096033;28;20178;-73
2023/08/31 16:52:28;;;;;;;4.63;1.70;;;;;;;;;;5095568;28;20222;-73
2023/08/31 16:55:33;;;;;;;16.87;2.60;;;;;;;;;;5095830;28;20539;-73
2023/08/31 16:58:37;;;;;;;9.47;2.17;;;;;;;;;;5095782;28;20194;-73
2023/08/31 17:01:41;;;;;;;9.57;2.37;;;;;;;;;;5095482;28;20183;-72
2023/08/31 17:04:45;;;;;;;3.60;1.80;;;;;;;;;;5095158;28;20179;-72
2023/08/31 17:07:49;;;;;;;30.73;3.03;;;;;;;;;;5094571;28;20534;-73
2023/08/31 17:10:54;;;;;;;38.03;3.07;;;;;;;;;;5095264;28;20210;-73
2023/08/31 17:13:57;;;;;;;7.90;1.90;;;;;;;;;;5095460;28;20218;-73
2023/08/31 17:17:03;;;;;;;4.20;1.90;;;;;;;;;;5095801;28;20673;-73
2023/08/31 17:20:15;;;;;;;4.43;1.70;;;;;;;;;;5095039;28;20206;-73
2023/08/31 17:23:20;;;;;;;5.07;1.80;;;;;;;;;;5095002;28;20535;-73
2023/08/31 17:26:26;;;;;;;4.83;1.90;;;;;;;;;;5095246;28;20179;-73
2023/08/31 17:29:30;;;;;;;6.37;2.03;;;;;;;;;;5095133;28;20183;-73
2023/08/31 17:32:35;;;;;;;9.17;2.20;;;;;;;;;;5094702;28;20218;-73
2023/08/31 17:35:39;;;;;;;7.23;1.70;;;;;;;;;;5094933;28;20223;-73
2023/08/31 17:38:44;;;;;;;7.77;1.87;;;;;;;;;;5093845;28;20203;-73
2023/08/31 17:41:48;;;;;;;6.50;2.00;;;;;;;;;;5094825;28;20183;-72
2023/08/31 17:44:53;;;;;;;3.70;2.03;;;;;;;;;;5095149;28;20495;-73
2023/08/31 17:47:57;;;;;;;5.47;1.67;;;;;;;;;;5094655;28;20225;-73
2023/08/31 17:51:01;;;;;;;4.33;2.03;;;;;;;;;;5094703;28;20179;-73
2023/08/31 17:54:05;;;;;;;6.23;2.13;;;;;;;;;;5094730;28;20178;-72
2023/08/31 17:57:10;;;;;;;5.10;1.63;;;;;;;;;;5094272;28;20206;-72
2023/08/31 18:00:14;;;;;;;8.27;2.40;;;;;;;;;;5094147;28;20191;-73
2023/08/31 18:03:19;;;;;;;5.77;2.43;;;;;;;;;;5094182;28;20206;-73
2023/08/31 18:06:23;;;;;;;4.87;2.00;;;;;;;;;;5094509;28;20175;-74
2023/08/31 18:09:29;;;;;;;3.30;1.87;;;;;;;;;;5094411;28;20178;-73
2023/08/31 18:12:33;;;;;;;7.93;2.20;;;;;;;;;;5094338;28;20219;-72
2023/08/31 18:15:38;;;;;;;41.60;3.67;;;;;;;;;;5093523;28;20211;-72
2023/08/31 18:18:42;;;;;;;31.17;2.60;;;;;;;;;;5093523;28;20523;-73
2023/08/31 18:21:46;;;;;;;15.87;2.33;;;;;;;;;;5094214;28;20183;-72
2023/08/31 18:24:50;;;;;;;14.40;2.23;;;;;;;;;;5094213;28;20171;-73
2023/08/31 18:27:54;;;;;;;3.73;1.80;;;;;;;;;;5093923;28;20179;-72